Time;durP1;ratioP1;P1;durP2;ratioP2;P2;SDS_P1;SDS_P2;PMS_P1;PMS_P2;Temp;Humidity;BMP_temperature;BMP_pressure;BME280_temperature;BME280_humidity;BME280_pressure;Samples;Min_cycle;Max_cycle;Signal;HPM_P1;HPM_P2
2024/01/24 13:55:00;;;;;;;168.75;152.85;;;;;;;;;;4984335;27;21098;-25
2024/01/24 13:58:04;;;;;;;167.77;151.93;;;;;;;;;;5175757;28;20599;-30
2024/01/24 14:00:35;;;;;;;167.63;151.95;;;;;;;;;;5184288;28;20269;-29
2024/01/24 14:03:05;;;;;;;166.45;150.88;;;;;;;;;;5197272;28;20234;-25
2024/01/24 14:05:36;;;;;;;168.82;152.98;;;;;;;;;;5177780;28;20215;-33
2024/01/24 14:08:06;;;;;;;169.32;153.52;;;;;;;;;;5091266;28;53793;-30
2024/01/24 14:13:49;;;;;;;169.82;154.63;;;;;;;;;;5151345;27;20600;-77
2024/01/24 14:16:20;;;;;;;168.55;152.93;;;;;;;;;;5167358;28;20276;-78
2024/01/24 14:18:50;;;;;;;166.68;151.43;;;;;;;;;;5170710;28;20216;-78
2024/01/24 14:21:20;;;;;;;169.52;153.40;;;;;;;;;;5173429;28;20178;-78
2024/01/24 14:23:51;;;;;;;166.57;151.02;;;;;;;;;;5178940;28;20239;-76
2024/01/24 14:26:22;;;;;;;170.43;154.60;;;;;;;;;;5173266;28;20192;-78
2024/01/24 14:28:53;;;;;;;166.80;151.65;;;;;;;;;;5175323;28;20183;-78
2024/01/24 14:31:23;;;;;;;166.98;151.80;;;;;;;;;;5177599;28;20186;-76
2024/01/24 14:33:53;;;;;;;166.75;151.45;;;;;;;;;;5178332;28;20208;-78
2024/01/24 14:36:34;;;;;;;169.85;154.20;;;;;;;;;;5176320;28;20178;-78
2024/01/24 14:39:05;;;;;;;165.75;150.55;;;;;;;;;;5179405;28;20298;-78
2024/01/24 14:41:35;;;;;;;166.75;151.02;;;;;;;;;;5194234;28;20211;-78
2024/01/24 14:44:05;;;;;;;166.48;151.52;;;;;;;;;;5174952;28;20207;-77
2024/01/24 14:46:36;;;;;;;170.57;154.98;;;;;;;;;;5187412;28;20195;-76
2024/01/24 14:49:06;;;;;;;166.18;151.02;;;;;;;;;;5171007;28;20249;-78
2024/01/24 14:51:36;;;;;;;166.23;151.00;;;;;;;;;;5172005;28;20245;-76
2024/01/24 14:54:07;;;;;;;170.38;154.82;;;;;;;;;;5176538;28;20201;-78
2024/01/24 14:56:38;;;;;;;167.50;152.00;;;;;;;;;;5180884;28;20185;-77
2024/01/24 14:59:08;;;;;;;166.65;151.23;;;;;;;;;;5178396;28;20181;-77
2024/01/24 15:01:39;;;;;;;170.65;154.93;;;;;;;;;;5178297;28;20610;-78
2024/01/24 15:04:09;;;;;;;164.95;149.25;;;;;;;;;;5177100;28;20693;-77
2024/01/24 15:06:39;;;;;;;169.50;154.25;;;;;;;;;;5176149;28;20191;-78
2024/01/24 15:09:12;;;;;;;166.75;151.15;;;;;;;;;;5206900;28;20192;-78
2024/01/24 15:11:42;;;;;;;166.18;150.80;;;;;;;;;;5178709;28;20211;-77
2024/01/24 15:14:13;;;;;;;167.23;151.55;;;;;;;;;;5179628;28;20492;-77
2024/01/24 15:16:43;;;;;;;168.63;152.35;;;;;;;;;;5173911;28;20583;-78
2024/01/24 15:19:13;;;;;;;168.77;152.23;;;;;;;;;;5202551;28;20224;-77
2024/01/24 15:21:45;;;;;;;168.80;152.43;;;;;;;;;;5173678;28;20241;-77
2024/01/24 15:24:15;;;;;;;165.18;149.63;;;;;;;;;;5168930;28;20264;-78
2024/01/24 15:26:45;;;;;;;166.18;150.10;;;;;;;;;;5176364;28;20270;-77
2024/01/24 15:29:16;;;;;;;166.88;150.88;;;;;;;;;;5160878;28;20273;-77
2024/01/24 15:31:46;;;;;;;168.43;152.45;;;;;;;;;;5162295;28;20202;-78
2024/01/24 15:34:16;;;;;;;167.35;150.90;;;;;;;;;;5159456;28;20220;-77
2024/01/24 15:36:47;;;;;;;172.05;156.77;;;;;;;;;;5151937;28;20194;-79
2024/01/24 15:39:20;;;;;;;171.10;155.52;;;;;;;;;;5150642;28;20199;-77
2024/01/24 15:41:50;;;;;;;170.57;155.02;;;;;;;;;;5155954;28;20760;-77
2024/01/24 15:44:21;;;;;;;180.52;164.38;;;;;;;;;;5149796;28;20215;-76
2024/01/24 15:46:51;;;;;;;170.60;155.00;;;;;;;;;;5156713;28;20248;-77
2024/01/24 15:49:21;;;;;;;169.20;153.98;;;;;;;;;;5159321;28;20241;-78
2024/01/24 15:51:52;;;;;;;172.25;156.45;;;;;;;;;;5178438;28;20208;-79
2024/01/24 15:54:22;;;;;;;170.23;154.68;;;;;;;;;;5174225;28;20236;-79
2024/01/24 15:56:52;;;;;;;170.05;154.77;;;;;;;;;;5154169;28;20564;-79
2024/01/24 15:59:23;;;;;;;169.80;154.65;;;;;;;;;;5155957;28;20271;-80
2024/01/24 16:01:53;;;;;;;170.07;154.93;;;;;;;;;;5159527;28;20212;-78
2024/01/24 16:04:24;;;;;;;170.13;154.85;;;;;;;;;;5186750;28;20208;-79
2024/01/24 16:06:54;;;;;;;170.43;155.05;;;;;;;;;;5158222;28;20187;-77
2024/01/24 16:09:24;;;;;;;167.25;151.98;;;;;;;;;;5160887;28;20222;-78
2024/01/24 16:11:54;;;;;;;170.50;154.60;;;;;;;;;;5161956;28;20549;-78
2024/01/24 16:14:25;;;;;;;169.15;154.27;;;;;;;;;;5165588;28;20223;-78
2024/01/24 16:16:56;;;;;;;169.93;154.70;;;;;;;;;;5156644;28;20195;-78
2024/01/24 16:19:27;;;;;;;167.80;152.65;;;;;;;;;;5164410;28;20593;-77
2024/01/24 16:21:57;;;;;;;168.55;153.07;;;;;;;;;;5165800;28;20192;-79
2024/01/24 16:24:28;;;;;;;169.90;154.52;;;;;;;;;;5166139;28;20629;-79
2024/01/24 16:26:59;;;;;;;167.60;152.35;;;;;;;;;;5161432;28;20175;-79
2024/01/24 16:29:32;;;;;;;168.85;153.30;;;;;;;;;;5166570;28;20567;-77
2024/01/24 16:32:02;;;;;;;167.38;152.18;;;;;;;;;;5167906;28;20200;-78
2024/01/24 16:34:33;;;;;;;168.68;153.20;;;;;;;;;;5164766;28;20220;-79
2024/01/24 16:37:03;;;;;;;171.00;155.48;;;;;;;;;;5177634;28;20273;-79
2024/01/24 16:39:33;;;;;;;167.85;152.85;;;;;;;;;;5157381;28;20202;-77
2024/01/24 16:42:05;;;;;;;169.60;154.50;;;;;;;;;;5161492;28;20181;-78
2024/01/24 16:44:35;;;;;;;167.48;152.80;;;;;;;;;;5164444;28;20571;-79
2024/01/24 16:47:06;;;;;;;169.30;154.32;;;;;;;;;;5164740;28;20183;-78
2024/01/24 16:49:37;;;;;;;171.80;156.35;;;;;;;;;;5140686;28;20204;-78
2024/01/24 16:52:07;;;;;;;171.88;156.07;;;;;;;;;;5193937;28;20675;-62
2024/01/24 16:54:37;;;;;;;172.43;157.15;;;;;;;;;;5176858;28;20342;-80
2024/01/24 16:57:07;;;;;;;173.13;157.48;;;;;;;;;;5161132;28;20238;-79
2024/01/24 16:59:41;;;;;;;170.25;154.88;;;;;;;;;;5165202;28;20191;-79
2024/01/24 17:02:11;;;;;;;167.68;152.65;;;;;;;;;;5159156;28;20187;-79
2024/01/24 17:04:52;;;;;;;;;;;;;;;;;;;;;
2024/01/24 17:07:23;;;;;;;168.13;153.13;;;;;;;;;;5156841;28;20315;-80
2024/01/24 17:09:53;;;;;;;171.07;155.55;;;;;;;;;;5159891;28;20268;-79
2024/01/24 17:12:27;;;;;;;174.73;158.95;;;;;;;;;;5157804;28;20209;-80
2024/01/24 17:14:58;;;;;;;166.98;151.90;;;;;;;;;;5163104;28;20215;-79
2024/01/24 17:17:28;;;;;;;170.27;155.15;;;;;;;;;;5161696;28;20184;-79
2024/01/24 17:19:58;;;;;;;167.68;152.30;;;;;;;;;;5162741;28;20251;-79
2024/01/24 17:22:29;;;;;;;169.77;154.35;;;;;;;;;;5161148;28;20248;-80
2024/01/24 17:24:59;;;;;;;168.30;153.25;;;;;;;;;;5153342;28;20218;-78
2024/01/24 17:27:29;;;;;;;169.48;154.00;;;;;;;;;;5158452;28;20183;-79
2024/01/24 17:30:00;;;;;;;164.27;149.32;;;;;;;;;;5160719;28;20200;-80
2024/01/24 17:32:30;;;;;;;168.07;153.20;;;;;;;;;;5161829;28;20217;-80
2024/01/24 17:35:00;;;;;;;169.43;153.90;;;;;;;;;;5152240;28;20210;-79
2024/01/24 17:37:31;;;;;;;170.32;154.80;;;;;;;;;;5152940;28;20194;-78
2024/01/24 17:40:01;;;;;;;169.25;153.75;;;;;;;;;;5154999;28;20179;-79
2024/01/24 17:42:32;;;;;;;166.82;151.52;;;;;;;;;;5154625;28;20199;-78
2024/01/24 17:45:02;;;;;;;168.40;152.85;;;;;;;;;;5158258;28;20577;-80
2024/01/24 17:47:32;;;;;;;168.73;153.45;;;;;;;;;;5158092;28;20225;-78
2024/01/24 17:50:03;;;;;;;167.07;151.77;;;;;;;;;;5153422;28;20720;-78
2024/01/24 17:52:35;;;;;;;171.05;154.52;;;;;;;;;;5158037;28;20224;-79
2024/01/24 17:55:05;;;;;;;166.57;151.50;;;;;;;;;;5152282;28;20202;-80
2024/01/24 17:57:36;;;;;;;169.95;154.43;;;;;;;;;;5153218;28;20210;-78
2024/01/24 18:00:07;;;;;;;168.73;153.18;;;;;;;;;;5160042;28;20732;-79
2024/01/24 18:02:38;;;;;;;170.30;154.77;;;;;;;;;;5157567;28;20170;-79
2024/01/24 18:05:08;;;;;;;167.60;151.88;;;;;;;;;;5159480;28;20215;-78
2024/01/24 18:07:38;;;;;;;165.88;151.02;;;;;;;;;;5155042;28;20593;-80
2024/01/24 18:10:09;;;;;;;171.07;155.50;;;;;;;;;;5149846;28;20242;-78
2024/01/24 18:12:39;;;;;;;168.43;153.10;;;;;;;;;;5157463;28;20257;-78
2024/01/24 18:15:10;;;;;;;169.93;154.52;;;;;;;;;;5158047;28;20250;-78
2024/01/24 18:17:40;;;;;;;171.70;155.40;;;;;;;;;;5155213;28;20193;-79
2024/01/24 18:20:10;;;;;;;169.07;153.38;;;;;;;;;;5159020;28;20561;-78
2024/01/24 18:22:41;;;;;;;170.60;154.85;;;;;;;;;;5152175;28;20186;-78
2024/01/24 18:25:12;;;;;;;171.13;155.27;;;;;;;;;;5166762;28;20239;-79
2024/01/24 18:27:42;;;;;;;168.23;152.82;;;;;;;;;;5159675;28;20638;-78
2024/01/24 18:30:15;;;;;;;169.27;153.38;;;;;;;;;;5162461;28;20177;-78
2024/01/24 18:32:46;;;;;;;170.57;154.75;;;;;;;;;;5158648;28;20205;-78
2024/01/24 18:35:17;;;;;;;168.43;152.90;;;;;;;;;;5157162;28;20214;-79
2024/01/24 18:37:47;;;;;;;168.30;152.73;;;;;;;;;;5165227;28;20235;-79
2024/01/24 18:40:17;;;;;;;168.98;153.55;;;;;;;;;;5177865;28;20204;-79
2024/01/24 18:42:48;;;;;;;167.63;152.40;;;;;;;;;;5179810;28;20179;-78
2024/01/24 18:45:18;;;;;;;167.73;152.35;;;;;;;;;;5182738;28;20206;-79
2024/01/24 18:47:49;;;;;;;169.35;153.57;;;;;;;;;;5176698;28;20191;-78
2024/01/24 18:50:20;;;;;;;170.35;154.60;;;;;;;;;;5180388;28;20182;-78
2024/01/24 18:52:50;;;;;;;171.65;156.13;;;;;;;;;;5172638;28;20210;-77
2024/01/24 18:55:20;;;;;;;169.25;153.90;;;;;;;;;;5184713;28;20195;-77
2024/01/24 18:57:51;;;;;;;168.20;152.65;;;;;;;;;;5185902;28;20186;-78
2024/01/24 19:00:21;;;;;;;168.77;153.38;;;;;;;;;;5189971;28;20177;-78
2024/01/24 19:02:53;;;;;;;169.60;154.07;;;;;;;;;;5183724;28;20206;-80
2024/01/24 19:05:23;;;;;;;170.73;155.00;;;;;;;;;;5188204;28;20198;-81
2024/01/24 19:07:54;;;;;;;169.02;153.63;;;;;;;;;;5189319;28;20244;-82
2024/01/24 19:10:25;;;;;;;168.90;152.80;;;;;;;;;;5192961;28;20182;-78
2024/01/24 19:12:55;;;;;;;171.57;155.82;;;;;;;;;;5193441;28;20292;-82
2024/01/24 19:15:26;;;;;;;169.70;154.18;;;;;;;;;;5191713;28;20196;-82
2024/01/24 19:17:57;;;;;;;168.00;152.68;;;;;;;;;;5194826;28;20189;-80
2024/01/24 19:20:27;;;;;;;169.82;154.30;;;;;;;;;;5191314;28;20196;-82
2024/01/24 19:22:58;;;;;;;166.80;151.52;;;;;;;;;;5192693;28;20182;-80
2024/01/24 19:25:28;;;;;;;166.82;151.68;;;;;;;;;;5193548;28;20196;-80
2024/01/24 19:27:59;;;;;;;170.07;154.32;;;;;;;;;;5191769;28;20520;-79
2024/01/24 19:30:29;;;;;;;168.68;153.32;;;;;;;;;;5192879;28;20188;-79
2024/01/24 19:32:59;;;;;;;168.18;152.50;;;;;;;;;;5209016;28;20208;-78
2024/01/24 19:35:31;;;;;;;168.65;153.43;;;;;;;;;;5188625;28;20185;-81
2024/01/24 19:38:01;;;;;;;169.65;154.30;;;;;;;;;;5191028;28;20181;-79
2024/01/24 19:40:33;;;;;;;167.32;151.82;;;;;;;;;;5188125;28;20190;-78
2024/01/24 19:43:03;;;;;;;168.48;152.82;;;;;;;;;;5188238;28;20182;-82
2024/01/24 19:45:34;;;;;;;168.90;153.68;;;;;;;;;;5190613;28;20554;-79
2024/01/24 19:48:05;;;;;;;167.80;152.32;;;;;;;;;;5193556;28;20203;-79
2024/01/24 19:50:36;;;;;;;168.65;153.55;;;;;;;;;;5191198;28;20189;-78
2024/01/24 19:53:07;;;;;;;168.82;152.95;;;;;;;;;;5188725;28;20203;-79
2024/01/24 19:55:37;;;;;;;167.15;152.00;;;;;;;;;;5192122;28;20200;-77
2024/01/24 19:58:07;;;;;;;170.15;154.88;;;;;;;;;;5188701;28;20208;-80
2024/01/24 20:00:38;;;;;;;166.02;150.45;;;;;;;;;;5187797;28;20212;-80
2024/01/24 20:03:08;;;;;;;168.65;153.18;;;;;;;;;;5185742;28;20188;-81
2024/01/24 20:05:39;;;;;;;166.48;151.35;;;;;;;;;;5185454;28;20195;-79
2024/01/24 20:08:09;;;;;;;168.63;153.18;;;;;;;;;;5191682;28;20183;-80
2024/01/24 20:10:40;;;;;;;168.40;152.85;;;;;;;;;;5191292;28;20218;-78
2024/01/24 20:13:10;;;;;;;167.15;151.73;;;;;;;;;;5188109;28;20221;-80
2024/01/24 20:15:41;;;;;;;169.00;153.32;;;;;;;;;;5187462;28;20201;-81
2024/01/24 20:18:11;;;;;;;170.60;154.68;;;;;;;;;;5190170;28;20671;-80
2024/01/24 20:20:41;;;;;;;168.48;153.32;;;;;;;;;;5191406;28;20196;-79
2024/01/24 20:23:12;;;;;;;166.93;151.73;;;;;;;;;;5192529;28;20213;-80
2024/01/24 20:25:42;;;;;;;168.20;153.07;;;;;;;;;;5175326;28;20190;-77
2024/01/24 20:28:12;;;;;;;166.43;151.10;;;;;;;;;;5193922;28;20619;-79
2024/01/24 20:30:44;;;;;;;170.43;154.38;;;;;;;;;;5188287;28;20206;-80
2024/01/24 20:33:14;;;;;;;170.05;154.73;;;;;;;;;;5185274;28;20205;-79
2024/01/24 20:35:45;;;;;;;167.90;152.60;;;;;;;;;;5187968;28;20243;-80
2024/01/24 20:38:17;;;;;;;168.55;153.07;;;;;;;;;;5191742;28;20637;-79
2024/01/24 20:40:48;;;;;;;170.80;154.93;;;;;;;;;;5192223;28;20182;-81
2024/01/24 20:43:18;;;;;;;168.13;152.88;;;;;;;;;;5189353;28;20216;-80
2024/01/24 20:45:49;;;;;;;170.10;154.60;;;;;;;;;;5181799;28;20248;-79
2024/01/24 20:48:19;;;;;;;169.05;153.65;;;;;;;;;;5189825;28;20189;-79
2024/01/24 20:50:50;;;;;;;168.65;153.10;;;;;;;;;;5174918;28;20183;-80
2024/01/24 20:53:20;;;;;;;167.57;152.20;;;;;;;;;;5192464;28;20213;-80
2024/01/24 20:55:50;;;;;;;165.25;150.35;;;;;;;;;;5194422;28;20216;-80
2024/01/24 20:58:21;;;;;;;168.95;153.63;;;;;;;;;;5190141;28;20192;-78
2024/01/24 21:00:51;;;;;;;169.55;153.68;;;;;;;;;;5186342;28;20188;-79
2024/01/24 21:03:22;;;;;;;167.48;151.98;;;;;;;;;;5186023;28;20205;-79
2024/01/24 21:05:52;;;;;;;174.05;158.23;;;;;;;;;;5187216;28;20196;-79
2024/01/24 21:08:23;;;;;;;168.13;152.82;;;;;;;;;;5190248;28;20200;-79
2024/01/24 21:10:53;;;;;;;167.93;152.02;;;;;;;;;;5188474;28;20187;-80
2024/01/24 21:13:24;;;;;;;166.73;151.80;;;;;;;;;;5193677;28;20216;-81
2024/01/24 21:15:55;;;;;;;168.75;153.65;;;;;;;;;;5192587;28;20636;-78
2024/01/24 21:18:26;;;;;;;168.75;153.02;;;;;;;;;;5191976;28;20277;-81
2024/01/24 21:20:56;;;;;;;167.52;152.43;;;;;;;;;;5188890;28;20194;-82
2024/01/24 21:23:26;;;;;;;169.38;154.13;;;;;;;;;;5187086;28;20221;-80
2024/01/24 21:25:57;;;;;;;168.27;152.90;;;;;;;;;;5191001;28;20218;-81
2024/01/24 21:28:27;;;;;;;169.63;153.63;;;;;;;;;;5185704;28;20189;-79
2024/01/24 21:30:57;;;;;;;167.63;152.45;;;;;;;;;;5182074;28;20182;-81
2024/01/24 21:33:31;;;;;;;172.05;156.32;;;;;;;;;;5170649;28;20658;-82
2024/01/24 21:36:01;;;;;;;170.32;154.77;;;;;;;;;;5176253;28;20236;-82
2024/01/24 21:38:32;;;;;;;171.30;155.35;;;;;;;;;;5179867;28;20181;-78
2024/01/24 21:41:02;;;;;;;169.20;154.07;;;;;;;;;;5174613;28;20608;-81
2024/01/24 21:43:33;;;;;;;165.50;150.18;;;;;;;;;;5184792;28;20601;-82
2024/01/24 21:46:03;;;;;;;170.45;154.52;;;;;;;;;;5190809;28;20260;-82
2024/01/24 21:48:33;;;;;;;168.40;152.60;;;;;;;;;;5184357;28;20711;-81
2024/01/24 21:51:04;;;;;;;168.18;152.52;;;;;;;;;;5190199;28;20272;-81
2024/01/24 21:53:34;;;;;;;168.05;152.45;;;;;;;;;;5183448;28;20212;-79
2024/01/24 21:56:05;;;;;;;167.50;152.40;;;;;;;;;;5186168;28;20189;-81
2024/01/24 21:58:37;;;;;;;169.27;153.75;;;;;;;;;;5191530;28;20284;-80
2024/01/24 22:01:08;;;;;;;171.32;155.52;;;;;;;;;;5198937;28;20181;-77
2024/01/24 22:03:38;;;;;;;168.13;152.35;;;;;;;;;;5185059;28;20200;-78
2024/01/24 22:06:08;;;;;;;171.90;156.27;;;;;;;;;;5181004;28;20185;-78
2024/01/24 22:08:39;;;;;;;167.98;152.32;;;;;;;;;;5180845;28;20321;-77
2024/01/24 22:11:10;;;;;;;169.20;153.15;;;;;;;;;;5181343;28;20663;-77
2024/01/24 22:13:40;;;;;;;167.55;152.23;;;;;;;;;;5175607;28;20243;-78
2024/01/24 22:16:11;;;;;;;171.88;156.15;;;;;;;;;;5192695;28;20190;-78
2024/01/24 22:18:41;;;;;;;169.88;154.50;;;;;;;;;;5179351;28;20186;-78
2024/01/24 22:21:11;;;;;;;173.20;157.27;;;;;;;;;;5176863;28;20664;-77
2024/01/24 22:23:42;;;;;;;171.38;155.48;;;;;;;;;;5180364;28;20232;-77
2024/01/24 22:26:12;;;;;;;168.60;153.30;;;;;;;;;;5178341;28;20561;-77
2024/01/24 22:28:42;;;;;;;170.98;155.25;;;;;;;;;;5179741;28;20196;-78
2024/01/24 22:31:13;;;;;;;171.40;155.70;;;;;;;;;;5174165;28;20220;-77
2024/01/24 22:33:43;;;;;;;170.40;154.73;;;;;;;;;;5184266;28;20206;-78
2024/01/24 22:36:13;;;;;;;173.23;157.27;;;;;;;;;;5165596;28;20209;-78
2024/01/24 22:38:45;;;;;;;170.27;154.75;;;;;;;;;;5184214;28;20191;-77
2024/01/24 22:41:16;;;;;;;170.68;155.10;;;;;;;;;;5183835;28;20183;-78
2024/01/24 22:43:46;;;;;;;172.63;156.43;;;;;;;;;;5183014;28;20477;-77
2024/01/24 22:46:16;;;;;;;170.63;154.85;;;;;;;;;;5178979;28;20675;-77
2024/01/24 22:48:47;;;;;;;172.63;156.50;;;;;;;;;;5181955;28;20216;-77
2024/01/24 22:51:17;;;;;;;177.18;161.40;;;;;;;;;;5177026;28;20608;-77
2024/01/24 22:53:48;;;;;;;168.65;153.60;;;;;;;;;;5183131;28;20239;-77
2024/01/24 22:56:18;;;;;;;171.88;156.10;;;;;;;;;;5181772;28;20231;-79
2024/01/24 22:58:48;;;;;;;171.27;155.05;;;;;;;;;;5175634;28;20181;-78
2024/01/24 23:01:19;;;;;;;176.30;159.70;;;;;;;;;;5172611;28;20188;-78
2024/01/24 23:03:49;;;;;;;168.05;152.45;;;;;;;;;;5181003;28;20221;-78
2024/01/24 23:06:19;;;;;;;168.77;152.93;;;;;;;;;;5179172;28;20321;-79
2024/01/24 23:08:50;;;;;;;170.35;155.27;;;;;;;;;;5174300;28;20203;-79
2024/01/24 23:11:20;;;;;;;169.23;153.77;;;;;;;;;;5184877;28;20185;-79
2024/01/24 23:13:50;;;;;;;174.55;158.73;;;;;;;;;;5181964;28;20236;-79
2024/01/24 23:16:21;;;;;;;170.07;154.55;;;;;;;;;;5179302;28;20189;-78
2024/01/24 23:18:54;;;;;;;173.02;156.93;;;;;;;;;;5181952;28;20189;-80
2024/01/24 23:21:24;;;;;;;170.23;154.32;;;;;;;;;;5183112;28;20181;-80
2024/01/24 23:23:54;;;;;;;172.68;156.25;;;;;;;;;;5183298;28;20201;-79
2024/01/24 23:26:25;;;;;;;171.07;155.63;;;;;;;;;;5178681;28;20256;-81
2024/01/24 23:28:55;;;;;;;170.00;153.95;;;;;;;;;;5182477;28;20194;-81
2024/01/24 23:31:25;;;;;;;170.27;154.77;;;;;;;;;;5179504;28;20177;-81
2024/01/24 23:33:56;;;;;;;170.75;154.70;;;;;;;;;;5182225;28;20209;-80
2024/01/24 23:36:29;;;;;;;170.50;154.73;;;;;;;;;;5182221;28;20707;-81
2024/01/24 23:38:59;;;;;;;170.60;154.77;;;;;;;;;;5179725;28;20217;-81
2024/01/24 23:41:30;;;;;;;168.73;153.38;;;;;;;;;;5182164;28;20216;-80
2024/01/24 23:44:00;;;;;;;169.00;153.07;;;;;;;;;;5182433;28;20708;-80
2024/01/24 23:46:33;;;;;;;175.00;158.32;;;;;;;;;;5176504;28;20277;-81
2024/01/24 23:49:03;;;;;;;171.70;156.00;;;;;;;;;;5186292;28;20179;-80
2024/01/24 23:51:33;;;;;;;177.07;160.70;;;;;;;;;;5179364;28;20244;-80
2024/01/24 23:54:04;;;;;;;175.60;159.57;;;;;;;;;;5184369;28;20208;-80
2024/01/24 23:56:34;;;;;;;171.85;156.35;;;;;;;;;;5175834;28;20653;-80
2024/01/24 23:59:05;;;;;;;173.48;157.55;;;;;;;;;;5181447;28;20761;-80
